sensor_id;sensor_type;location;lat;lon;timestamp;P1;durP1;ratioP1;P2;durP2;ratioP2
64520;SDS011;50896;46.714;17.322;2023-04-29T00:00:42;9.90;;;4.65;;
64520;SDS011;50896;46.714;17.322;2023-04-29T00:03:09;7.32;;;4.43;;
64520;SDS011;50896;46.714;17.322;2023-04-29T00:05:37;8.20;;;4.70;;
64520;SDS011;50896;46.714;17.322;2023-04-29T00:08:04;9.13;;;4.80;;
64520;SDS011;50896;46.714;17.322;2023-04-29T00:10:31;8.60;;;3.97;;
64520;SDS011;50896;46.714;17.322;2023-04-29T00:12:58;5.57;;;4.00;;
64520;SDS011;50896;46.714;17.322;2023-04-29T00:15:25;7.88;;;4.30;;
64520;SDS011;50896;46.714;17.322;2023-04-29T00:17:51;6.85;;;4.55;;
64520;SDS011;50896;46.714;17.322;2023-04-29T00:20:18;6.25;;;3.80;;
64520;SDS011;50896;46.714;17.322;2023-04-29T00:22:45;7.38;;;4.43;;
64520;SDS011;50896;46.714;17.322;2023-04-29T00:25:12;6.90;;;4.53;;
64520;SDS011;50896;46.714;17.322;2023-04-29T00:27:39;6.15;;;4.43;;
64520;SDS011;50896;46.714;17.322;2023-04-29T00:30:06;7.70;;;4.30;;
64520;SDS011;50896;46.714;17.322;2023-04-29T00:32:33;5.95;;;3.88;;
64520;SDS011;50896;46.714;17.322;2023-04-29T00:35:00;6.97;;;4.32;;
64520;SDS011;50896;46.714;17.322;2023-04-29T00:37:27;10.32;;;5.00;;
64520;SDS011;50896;46.714;17.322;2023-04-29T00:39:54;12.05;;;4.90;;
64520;SDS011;50896;46.714;17.322;2023-04-29T00:42:21;9.88;;;5.03;;
64520;SDS011;50896;46.714;17.322;2023-04-29T00:44:48;8.88;;;5.05;;
64520;SDS011;50896;46.714;17.322;2023-04-29T00:47:14;7.80;;;4.38;;
64520;SDS011;50896;46.714;17.322;2023-04-29T00:49:41;16.88;;;7.43;;
64520;SDS011;50896;46.714;17.322;2023-04-29T00:52:10;12.52;;;6.20;;
64520;SDS011;50896;46.714;17.322;2023-04-29T00:54:37;21.47;;;9.57;;
64520;SDS011;50896;46.714;17.322;2023-04-29T00:57:05;14.68;;;6.95;;
64520;SDS011;50896;46.714;17.322;2023-04-29T00:59:32;12.25;;;5.40;;
64520;SDS011;50896;46.714;17.322;2023-04-29T01:02:00;11.13;;;5.47;;
64520;SDS011;50896;46.714;17.322;2023-04-29T01:04:28;9.45;;;5.30;;
64520;SDS011;50896;46.714;17.322;2023-04-29T01:07:12;10.00;;;5.22;;
64520;SDS011;50896;46.714;17.322;2023-04-29T01:12:14;8.52;;;4.90;;
64520;SDS011;50896;46.714;17.322;2023-04-29T01:20:29;7.28;;;4.38;;
64520;SDS011;50896;46.714;17.322;2023-04-29T01:22:58;8.93;;;4.18;;
64520;SDS011;50896;46.714;17.322;2023-04-29T01:25:25;7.25;;;4.82;;
64520;SDS011;50896;46.714;17.322;2023-04-29T01:31:06;6.55;;;4.63;;
64520;SDS011;50896;46.714;17.322;2023-04-29T01:33:39;8.80;;;5.00;;
64520;SDS011;50896;46.714;17.322;2023-04-29T01:39:10;7.93;;;4.90;;
64520;SDS011;50896;46.714;17.322;2023-04-29T01:41:55;10.27;;;4.82;;
64520;SDS011;50896;46.714;17.322;2023-04-29T01:44:28;6.38;;;4.68;;
64520;SDS011;50896;46.714;17.322;2023-04-29T01:46:57;6.28;;;4.78;;
64520;SDS011;50896;46.714;17.322;2023-04-29T01:49:34;6.40;;;4.70;;
64520;SDS011;50896;46.714;17.322;2023-04-29T01:52:01;5.97;;;4.70;;
64520;SDS011;50896;46.714;17.322;2023-04-29T01:54:29;6.85;;;4.53;;
64520;SDS011;50896;46.714;17.322;2023-04-29T01:56:56;8.18;;;4.95;;
64520;SDS011;50896;46.714;17.322;2023-04-29T01:59:42;5.10;;;4.53;;
64520;SDS011;50896;46.714;17.322;2023-04-29T02:02:27;9.05;;;4.78;;
64520;SDS011;50896;46.714;17.322;2023-04-29T02:05:02;6.10;;;4.70;;
64520;SDS011;50896;46.714;17.322;2023-04-29T02:07:29;7.00;;;5.50;;
64520;SDS011;50896;46.714;17.322;2023-04-29T02:09:56;8.07;;;4.88;;
64520;SDS011;50896;46.714;17.322;2023-04-29T02:12:23;6.28;;;4.88;;
64520;SDS011;50896;46.714;17.322;2023-04-29T02:14:53;7.90;;;5.10;;
64520;SDS011;50896;46.714;17.322;2023-04-29T02:17:20;8.52;;;4.78;;
64520;SDS011;50896;46.714;17.322;2023-04-29T02:19:47;7.15;;;4.85;;
64520;SDS011;50896;46.714;17.322;2023-04-29T02:22:14;8.52;;;5.30;;
64520;SDS011;50896;46.714;17.322;2023-04-29T02:24:40;6.13;;;4.88;;
64520;SDS011;50896;46.714;17.322;2023-04-29T02:27:07;8.05;;;5.20;;
64520;SDS011;50896;46.714;17.322;2023-04-29T02:29:35;7.15;;;5.30;;
64520;SDS011;50896;46.714;17.322;2023-04-29T02:32:02;6.80;;;4.80;;
64520;SDS011;50896;46.714;17.322;2023-04-29T02:34:30;7.38;;;5.10;;
64520;SDS011;50896;46.714;17.322;2023-04-29T02:36:58;7.05;;;4.97;;
64520;SDS011;50896;46.714;17.322;2023-04-29T02:39:25;12.48;;;5.57;;
64520;SDS011;50896;46.714;17.322;2023-04-29T02:41:54;7.50;;;5.00;;
64520;SDS011;50896;46.714;17.322;2023-04-29T02:44:22;7.45;;;4.85;;
64520;SDS011;50896;46.714;17.322;2023-04-29T02:46:48;9.32;;;4.82;;
64520;SDS011;50896;46.714;17.322;2023-04-29T02:49:15;8.38;;;4.50;;
64520;SDS011;50896;46.714;17.322;2023-04-29T02:51:42;7.55;;;5.00;;
64520;SDS011;50896;46.714;17.322;2023-04-29T02:54:09;7.45;;;5.10;;
64520;SDS011;50896;46.714;17.322;2023-04-29T02:56:37;7.10;;;4.82;;
64520;SDS011;50896;46.714;17.322;2023-04-29T02:59:04;10.45;;;5.45;;
64520;SDS011;50896;46.714;17.322;2023-04-29T03:01:30;8.18;;;5.50;;
64520;SDS011;50896;46.714;17.322;2023-04-29T03:03:57;9.82;;;5.32;;
64520;SDS011;50896;46.714;17.322;2023-04-29T03:06:24;8.30;;;5.00;;
64520;SDS011;50896;46.714;17.322;2023-04-29T03:08:51;8.02;;;5.50;;
64520;SDS011;50896;46.714;17.322;2023-04-29T03:11:19;6.70;;;4.95;;
64520;SDS011;50896;46.714;17.322;2023-04-29T03:13:46;7.20;;;5.68;;
64520;SDS011;50896;46.714;17.322;2023-04-29T03:16:12;8.13;;;4.97;;
64520;SDS011;50896;46.714;17.322;2023-04-29T03:18:42;9.30;;;5.68;;
64520;SDS011;50896;46.714;17.322;2023-04-29T03:21:10;6.88;;;4.85;;
64520;SDS011;50896;46.714;17.322;2023-04-29T03:23:37;9.32;;;5.13;;
64520;SDS011;50896;46.714;17.322;2023-04-29T03:26:09;7.55;;;5.05;;
64520;SDS011;50896;46.714;17.322;2023-04-29T03:28:35;7.45;;;4.97;;
64520;SDS011;50896;46.714;17.322;2023-04-29T03:31:02;9.75;;;5.70;;
64520;SDS011;50896;46.714;17.322;2023-04-29T03:33:30;8.95;;;4.95;;
64520;SDS011;50896;46.714;17.322;2023-04-29T03:35:56;5.90;;;5.10;;
64520;SDS011;50896;46.714;17.322;2023-04-29T03:38:39;8.15;;;5.35;;
64520;SDS011;50896;46.714;17.322;2023-04-29T03:41:06;8.60;;;5.20;;
64520;SDS011;50896;46.714;17.322;2023-04-29T03:43:33;8.63;;;5.13;;
64520;SDS011;50896;46.714;17.322;2023-04-29T03:46:00;10.65;;;5.93;;
64520;SDS011;50896;46.714;17.322;2023-04-29T03:48:27;7.35;;;5.30;;
64520;SDS011;50896;46.714;17.322;2023-04-29T03:50:54;7.28;;;5.63;;
64520;SDS011;50896;46.714;17.322;2023-04-29T03:53:21;8.52;;;5.72;;
64520;SDS011;50896;46.714;17.322;2023-04-29T03:55:48;10.20;;;6.32;;
64520;SDS011;50896;46.714;17.322;2023-04-29T03:58:15;9.25;;;6.50;;
64520;SDS011;50896;46.714;17.322;2023-04-29T04:00:42;9.10;;;6.53;;
64520;SDS011;50896;46.714;17.322;2023-04-29T04:03:16;11.23;;;6.50;;
64520;SDS011;50896;46.714;17.322;2023-04-29T04:05:43;9.20;;;6.60;;
64520;SDS011;50896;46.714;17.322;2023-04-29T04:08:13;8.52;;;6.32;;
64520;SDS011;50896;46.714;17.322;2023-04-29T04:10:42;12.20;;;6.40;;
64520;SDS011;50896;46.714;17.322;2023-04-29T04:13:29;8.35;;;6.25;;
64520;SDS011;50896;46.714;17.322;2023-04-29T04:15:56;12.02;;;5.75;;
64520;SDS011;50896;46.714;17.322;2023-04-29T04:18:23;9.93;;;6.45;;
64520;SDS011;50896;46.714;17.322;2023-04-29T04:20:50;9.57;;;6.72;;
64520;SDS011;50896;46.714;17.322;2023-04-29T04:23:17;16.75;;;10.18;;
64520;SDS011;50896;46.714;17.322;2023-04-29T04:25:47;12.10;;;7.55;;
64520;SDS011;50896;46.714;17.322;2023-04-29T04:28:33;10.05;;;6.32;;
64520;SDS011;50896;46.714;17.322;2023-04-29T04:31:05;9.15;;;6.20;;
64520;SDS011;50896;46.714;17.322;2023-04-29T04:33:33;11.55;;;6.18;;
64520;SDS011;50896;46.714;17.322;2023-04-29T04:36:00;12.82;;;8.35;;
64520;SDS011;50896;46.714;17.322;2023-04-29T04:38:27;11.20;;;7.68;;
64520;SDS011;50896;46.714;17.322;2023-04-29T04:40:54;7.93;;;6.20;;
64520;SDS011;50896;46.714;17.322;2023-04-29T04:43:27;10.52;;;6.15;;
64520;SDS011;50896;46.714;17.322;2023-04-29T04:45:54;6.50;;;5.60;;
64520;SDS011;50896;46.714;17.322;2023-04-29T04:48:21;10.43;;;5.95;;
64520;SDS011;50896;46.714;17.322;2023-04-29T04:50:49;9.35;;;7.03;;
64520;SDS011;50896;46.714;17.322;2023-04-29T04:53:16;10.20;;;6.68;;
64520;SDS011;50896;46.714;17.322;2023-04-29T04:55:49;9.18;;;6.70;;
64520;SDS011;50896;46.714;17.322;2023-04-29T04:58:16;16.70;;;10.38;;
64520;SDS011;50896;46.714;17.322;2023-04-29T05:00:44;17.63;;;11.02;;
64520;SDS011;50896;46.714;17.322;2023-04-29T05:03:11;16.35;;;10.07;;
64520;SDS011;50896;46.714;17.322;2023-04-29T05:05:38;12.25;;;8.32;;
64520;SDS011;50896;46.714;17.322;2023-04-29T05:08:05;12.20;;;6.60;;
64520;SDS011;50896;46.714;17.322;2023-04-29T05:10:43;9.90;;;5.70;;
64520;SDS011;50896;46.714;17.322;2023-04-29T05:13:11;8.88;;;4.90;;
64520;SDS011;50896;46.714;17.322;2023-04-29T05:15:38;9.98;;;6.05;;
64520;SDS011;50896;46.714;17.322;2023-04-29T05:18:07;13.13;;;9.02;;
64520;SDS011;50896;46.714;17.322;2023-04-29T05:20:33;13.23;;;8.73;;
64520;SDS011;50896;46.714;17.322;2023-04-29T05:23:01;11.00;;;8.60;;
64520;SDS011;50896;46.714;17.322;2023-04-29T05:25:32;13.88;;;8.75;;
64520;SDS011;50896;46.714;17.322;2023-04-29T05:27:59;8.65;;;5.72;;
64520;SDS011;50896;46.714;17.322;2023-04-29T05:32:55;9.18;;;5.22;;
64520;SDS011;50896;46.714;17.322;2023-04-29T05:35:22;11.68;;;5.65;;
64520;SDS011;50896;46.714;17.322;2023-04-29T05:37:49;8.88;;;5.25;;
64520;SDS011;50896;46.714;17.322;2023-04-29T05:40:27;11.38;;;5.50;;
64520;SDS011;50896;46.714;17.322;2023-04-29T05:43:08;7.90;;;5.35;;
64520;SDS011;50896;46.714;17.322;2023-04-29T05:45:36;8.20;;;5.45;;
64520;SDS011;50896;46.714;17.322;2023-04-29T05:48:03;10.45;;;5.07;;
64520;SDS011;50896;46.714;17.322;2023-04-29T05:50:38;10.52;;;5.68;;
64520;SDS011;50896;46.714;17.322;2023-04-29T05:53:05;9.13;;;5.50;;
64520;SDS011;50896;46.714;17.322;2023-04-29T05:55:33;8.35;;;5.20;;
64520;SDS011;50896;46.714;17.322;2023-04-29T05:58:00;7.25;;;4.90;;
64520;SDS011;50896;46.714;17.322;2023-04-29T06:00:27;10.07;;;5.38;;
64520;SDS011;50896;46.714;17.322;2023-04-29T06:03:02;10.40;;;5.47;;
64520;SDS011;50896;46.714;17.322;2023-04-29T06:05:30;7.25;;;4.97;;
64520;SDS011;50896;46.714;17.322;2023-04-29T06:08:33;9.88;;;5.18;;
64520;SDS011;50896;46.714;17.322;2023-04-29T06:11:13;7.35;;;4.85;;
64520;SDS011;50896;46.714;17.322;2023-04-29T06:13:40;9.80;;;5.32;;
64520;SDS011;50896;46.714;17.322;2023-04-29T06:16:07;7.40;;;4.97;;
64520;SDS011;50896;46.714;17.322;2023-04-29T06:18:34;6.97;;;4.75;;
64520;SDS011;50896;46.714;17.322;2023-04-29T06:21:01;8.88;;;4.72;;
64520;SDS011;50896;46.714;17.322;2023-04-29T06:23:28;10.13;;;5.00;;
64520;SDS011;50896;46.714;17.322;2023-04-29T06:25:57;10.77;;;5.15;;
64520;SDS011;50896;46.714;17.322;2023-04-29T06:28:24;7.60;;;4.78;;
64520;SDS011;50896;46.714;17.322;2023-04-29T06:30:51;7.35;;;4.75;;
64520;SDS011;50896;46.714;17.322;2023-04-29T06:33:18;8.38;;;5.10;;
64520;SDS011;50896;46.714;17.322;2023-04-29T06:35:45;9.27;;;4.97;;
64520;SDS011;50896;46.714;17.322;2023-04-29T06:38:32;6.78;;;4.95;;
64520;SDS011;50896;46.714;17.322;2023-04-29T06:41:25;7.82;;;5.10;;
64520;SDS011;50896;46.714;17.322;2023-04-29T06:44:21;7.07;;;4.70;;
64520;SDS011;50896;46.714;17.322;2023-04-29T06:49:51;7.45;;;5.03;;
64520;SDS011;50896;46.714;17.322;2023-04-29T06:52:20;9.48;;;4.97;;
64520;SDS011;50896;46.714;17.322;2023-04-29T06:54:47;8.25;;;5.32;;
64520;SDS011;50896;46.714;17.322;2023-04-29T06:57:14;6.65;;;4.78;;
64520;SDS011;50896;46.714;17.322;2023-04-29T06:59:44;8.55;;;4.90;;
64520;SDS011;50896;46.714;17.322;2023-04-29T07:02:11;9.40;;;5.28;;
64520;SDS011;50896;46.714;17.322;2023-04-29T07:04:38;7.85;;;4.43;;
64520;SDS011;50896;46.714;17.322;2023-04-29T07:07:06;9.27;;;4.88;;
64520;SDS011;50896;46.714;17.322;2023-04-29T07:09:33;8.48;;;4.72;;
64520;SDS011;50896;46.714;17.322;2023-04-29T07:12:02;9.25;;;4.80;;
64520;SDS011;50896;46.714;17.322;2023-04-29T07:14:30;8.45;;;5.10;;
64520;SDS011;50896;46.714;17.322;2023-04-29T07:16:57;9.60;;;5.05;;
64520;SDS011;50896;46.714;17.322;2023-04-29T07:19:24;8.90;;;4.90;;
64520;SDS011;50896;46.714;17.322;2023-04-29T07:21:51;8.80;;;5.18;;
64520;SDS011;50896;46.714;17.322;2023-04-29T07:24:18;8.77;;;4.75;;
64520;SDS011;50896;46.714;17.322;2023-04-29T07:26:45;8.00;;;5.10;;
64520;SDS011;50896;46.714;17.322;2023-04-29T07:29:14;9.63;;;5.30;;
64520;SDS011;50896;46.714;17.322;2023-04-29T07:31:41;8.35;;;4.60;;
64520;SDS011;50896;46.714;17.322;2023-04-29T07:34:08;7.00;;;4.90;;
64520;SDS011;50896;46.714;17.322;2023-04-29T07:36:34;7.72;;;5.22;;
64520;SDS011;50896;46.714;17.322;2023-04-29T07:39:01;8.00;;;5.05;;
64520;SDS011;50896;46.714;17.322;2023-04-29T07:41:29;10.75;;;5.55;;
64520;SDS011;50896;46.714;17.322;2023-04-29T07:43:57;8.07;;;4.82;;
64520;SDS011;50896;46.714;17.322;2023-04-29T07:46:24;11.43;;;4.82;;
64520;SDS011;50896;46.714;17.322;2023-04-29T07:48:50;9.20;;;5.10;;
64520;SDS011;50896;46.714;17.322;2023-04-29T07:51:18;8.43;;;4.68;;
64520;SDS011;50896;46.714;17.322;2023-04-29T07:53:45;7.20;;;5.03;;
64520;SDS011;50896;46.714;17.322;2023-04-29T07:56:11;11.05;;;5.40;;
64520;SDS011;50896;46.714;17.322;2023-04-29T07:58:39;7.68;;;5.57;;
64520;SDS011;50896;46.714;17.322;2023-04-29T08:01:09;14.77;;;5.53;;
64520;SDS011;50896;46.714;17.322;2023-04-29T08:03:38;8.35;;;5.10;;
64520;SDS011;50896;46.714;17.322;2023-04-29T08:06:08;8.63;;;4.47;;
64520;SDS011;50896;46.714;17.322;2023-04-29T08:08:35;8.10;;;5.30;;
64520;SDS011;50896;46.714;17.322;2023-04-29T08:11:02;8.98;;;5.53;;
64520;SDS011;50896;46.714;17.322;2023-04-29T08:13:30;6.78;;;4.82;;
64520;SDS011;50896;46.714;17.322;2023-04-29T08:15:57;10.95;;;5.95;;
64520;SDS011;50896;46.714;17.322;2023-04-29T08:18:23;10.40;;;5.63;;
64520;SDS011;50896;46.714;17.322;2023-04-29T08:20:50;13.23;;;6.20;;
64520;SDS011;50896;46.714;17.322;2023-04-29T08:23:17;8.45;;;5.72;;
64520;SDS011;50896;46.714;17.322;2023-04-29T08:25:44;9.13;;;5.32;;
64520;SDS011;50896;46.714;17.322;2023-04-29T08:28:11;9.23;;;5.88;;
64520;SDS011;50896;46.714;17.322;2023-04-29T08:30:41;8.35;;;5.78;;
64520;SDS011;50896;46.714;17.322;2023-04-29T08:33:08;9.00;;;5.50;;
64520;SDS011;50896;46.714;17.322;2023-04-29T08:35:35;10.27;;;6.40;;
64520;SDS011;50896;46.714;17.322;2023-04-29T08:40:36;8.65;;;6.05;;
64520;SDS011;50896;46.714;17.322;2023-04-29T08:43:08;11.18;;;7.10;;
64520;SDS011;50896;46.714;17.322;2023-04-29T08:45:35;8.57;;;6.15;;
64520;SDS011;50896;46.714;17.322;2023-04-29T08:48:03;13.80;;;6.90;;
64520;SDS011;50896;46.714;17.322;2023-04-29T08:50:40;7.80;;;5.93;;
64520;SDS011;50896;46.714;17.322;2023-04-29T08:53:08;9.80;;;6.00;;
64520;SDS011;50896;46.714;17.322;2023-04-29T08:55:40;9.43;;;6.13;;
64520;SDS011;50896;46.714;17.322;2023-04-29T08:58:09;11.35;;;6.88;;
64520;SDS011;50896;46.714;17.322;2023-04-29T09:00:37;9.93;;;6.38;;
64520;SDS011;50896;46.714;17.322;2023-04-29T09:05:55;11.55;;;6.80;;
64520;SDS011;50896;46.714;17.322;2023-04-29T09:08:26;9.65;;;6.60;;
64520;SDS011;50896;46.714;17.322;2023-04-29T09:10:53;8.27;;;6.28;;
64520;SDS011;50896;46.714;17.322;2023-04-29T09:13:25;7.18;;;6.00;;
64520;SDS011;50896;46.714;17.322;2023-04-29T09:15:54;10.98;;;6.15;;
64520;SDS011;50896;46.714;17.322;2023-04-29T09:18:44;8.52;;;6.65;;
64520;SDS011;50896;46.714;17.322;2023-04-29T09:21:14;11.13;;;7.30;;
64520;SDS011;50896;46.714;17.322;2023-04-29T09:23:49;12.45;;;7.32;;
64520;SDS011;50896;46.714;17.322;2023-04-29T09:26:17;9.48;;;6.10;;
64520;SDS011;50896;46.714;17.322;2023-04-29T09:28:45;13.55;;;7.80;;
64520;SDS011;50896;46.714;17.322;2023-04-29T09:31:13;10.80;;;7.40;;
64520;SDS011;50896;46.714;17.322;2023-04-29T09:33:50;10.43;;;6.22;;
64520;SDS011;50896;46.714;17.322;2023-04-29T09:39:05;10.75;;;5.13;;
64520;SDS011;50896;46.714;17.322;2023-04-29T09:44:06;7.38;;;4.90;;
64520;SDS011;50896;46.714;17.322;2023-04-29T09:46:34;9.27;;;4.80;;
64520;SDS011;50896;46.714;17.322;2023-04-29T09:49:02;6.15;;;3.50;;
64520;SDS011;50896;46.714;17.322;2023-04-29T09:51:32;4.00;;;3.17;;
64520;SDS011;50896;46.714;17.322;2023-04-29T09:54:24;5.35;;;3.33;;
64520;SDS011;50896;46.714;17.322;2023-04-29T09:56:54;3.90;;;2.80;;
64520;SDS011;50896;46.714;17.322;2023-04-29T09:59:23;5.50;;;3.10;;
64520;SDS011;50896;46.714;17.322;2023-04-29T10:01:51;7.18;;;3.40;;
64520;SDS011;50896;46.714;17.322;2023-04-29T10:04:25;5.88;;;2.50;;
64520;SDS011;50896;46.714;17.322;2023-04-29T10:06:53;3.45;;;2.20;;
64520;SDS011;50896;46.714;17.322;2023-04-29T10:09:22;2.83;;;2.08;;
64520;SDS011;50896;46.714;17.322;2023-04-29T10:11:50;6.38;;;2.38;;
64520;SDS011;50896;46.714;17.322;2023-04-29T10:14:18;7.03;;;2.80;;
64520;SDS011;50896;46.714;17.322;2023-04-29T10:21:59;4.03;;;2.47;;
64520;SDS011;50896;46.714;17.322;2023-04-29T10:24:30;4.32;;;2.40;;
64520;SDS011;50896;46.714;17.322;2023-04-29T10:27:00;2.78;;;2.05;;
64520;SDS011;50896;46.714;17.322;2023-04-29T10:29:28;4.80;;;3.40;;
64520;SDS011;50896;46.714;17.322;2023-04-29T10:31:57;5.50;;;2.10;;
64520;SDS011;50896;46.714;17.322;2023-04-29T10:34:25;2.95;;;1.70;;
64520;SDS011;50896;46.714;17.322;2023-04-29T10:36:52;2.47;;;1.70;;
64520;SDS011;50896;46.714;17.322;2023-04-29T10:40:08;9.25;;;2.10;;
64520;SDS011;50896;46.714;17.322;2023-04-29T10:42:19;3.33;;;2.58;;
64520;SDS011;50896;46.714;17.322;2023-04-29T10:45:15;4.60;;;2.03;;
64520;SDS011;50896;46.714;17.322;2023-04-29T10:50:32;4.93;;;2.95;;
64520;SDS011;50896;46.714;17.322;2023-04-29T10:53:00;4.10;;;3.50;;
64520;SDS011;50896;46.714;17.322;2023-04-29T10:55:28;3.88;;;2.75;;
64520;SDS011;50896;46.714;17.322;2023-04-29T10:57:56;3.60;;;2.53;;
64520;SDS011;50896;46.714;17.322;2023-04-29T11:00:27;3.35;;;2.08;;
64520;SDS011;50896;46.714;17.322;2023-04-29T11:02:58;4.05;;;1.70;;
64520;SDS011;50896;46.714;17.322;2023-04-29T11:08:10;3.67;;;1.55;;
64520;SDS011;50896;46.714;17.322;2023-04-29T11:10:42;1.92;;;1.58;;
64520;SDS011;50896;46.714;17.322;2023-04-29T11:15:53;2.05;;;1.60;;
64520;SDS011;50896;46.714;17.322;2023-04-29T11:18:31;3.55;;;1.73;;
64520;SDS011;50896;46.714;17.322;2023-04-29T11:23:29;2.45;;;1.60;;
64520;SDS011;50896;46.714;17.322;2023-04-29T11:25:57;3.03;;;1.55;;
64520;SDS011;50896;46.714;17.322;2023-04-29T11:28:24;3.78;;;2.20;;
64520;SDS011;50896;46.714;17.322;2023-04-29T11:30:53;4.20;;;2.20;;
64520;SDS011;50896;46.714;17.322;2023-04-29T11:33:22;3.05;;;2.10;;
64520;SDS011;50896;46.714;17.322;2023-04-29T11:35:50;4.85;;;1.90;;
64520;SDS011;50896;46.714;17.322;2023-04-29T11:38:17;2.33;;;1.77;;
64520;SDS011;50896;46.714;17.322;2023-04-29T11:40:50;2.08;;;1.60;;
64520;SDS011;50896;46.714;17.322;2023-04-29T11:43:17;3.25;;;1.92;;
64520;SDS011;50896;46.714;17.322;2023-04-29T11:45:45;5.75;;;1.90;;
64520;SDS011;50896;46.714;17.322;2023-04-29T11:48:16;4.80;;;2.00;;
64520;SDS011;50896;46.714;17.322;2023-04-29T11:50:45;1.30;;;1.10;;
64520;SDS011;50896;46.714;17.322;2023-04-29T11:53:13;3.00;;;1.10;;
64520;SDS011;50896;46.714;17.322;2023-04-29T11:55:41;6.20;;;2.22;;
64520;SDS011;50896;46.714;17.322;2023-04-29T11:58:08;4.57;;;2.10;;
64520;SDS011;50896;46.714;17.322;2023-04-29T12:00:36;5.97;;;2.25;;
64520;SDS011;50896;46.714;17.322;2023-04-29T12:03:12;3.55;;;2.40;;
64520;SDS011;50896;46.714;17.322;2023-04-29T12:05:47;4.72;;;2.40;;
64520;SDS011;50896;46.714;17.322;2023-04-29T12:08:20;5.82;;;2.55;;
64520;SDS011;50896;46.714;17.322;2023-04-29T12:10:48;4.07;;;2.58;;
64520;SDS011;50896;46.714;17.322;2023-04-29T12:13:15;5.45;;;2.42;;
64520;SDS011;50896;46.714;17.322;2023-04-29T12:15:43;3.33;;;2.38;;
64520;SDS011;50896;46.714;17.322;2023-04-29T12:18:12;4.43;;;2.30;;
64520;SDS011;50896;46.714;17.322;2023-04-29T12:20:40;9.63;;;2.80;;
64520;SDS011;50896;46.714;17.322;2023-04-29T12:23:13;6.25;;;2.80;;
64520;SDS011;50896;46.714;17.322;2023-04-29T12:25:58;4.10;;;2.38;;
64520;SDS011;50896;46.714;17.322;2023-04-29T12:28:26;3.42;;;2.53;;
64520;SDS011;50896;46.714;17.322;2023-04-29T12:30:53;4.95;;;3.33;;
64520;SDS011;50896;46.714;17.322;2023-04-29T12:33:24;7.10;;;4.70;;
64520;SDS011;50896;46.714;17.322;2023-04-29T12:35:56;6.80;;;3.13;;
64520;SDS011;50896;46.714;17.322;2023-04-29T12:38:28;6.70;;;4.10;;
64520;SDS011;50896;46.714;17.322;2023-04-29T12:40:59;6.80;;;4.25;;
64520;SDS011;50896;46.714;17.322;2023-04-29T12:43:27;6.07;;;3.40;;
64520;SDS011;50896;46.714;17.322;2023-04-29T12:46:01;4.32;;;3.13;;
64520;SDS011;50896;46.714;17.322;2023-04-29T12:48:30;6.05;;;3.38;;
64520;SDS011;50896;46.714;17.322;2023-04-29T12:50:59;5.03;;;2.47;;
64520;SDS011;50896;46.714;17.322;2023-04-29T12:53:30;4.35;;;2.17;;
64520;SDS011;50896;46.714;17.322;2023-04-29T12:55:58;2.90;;;2.28;;
64520;SDS011;50896;46.714;17.322;2023-04-29T12:58:28;2.65;;;2.20;;
64520;SDS011;50896;46.714;17.322;2023-04-29T13:00:56;2.90;;;2.50;;
64520;SDS011;50896;46.714;17.322;2023-04-29T13:03:24;6.28;;;3.05;;
64520;SDS011;50896;46.714;17.322;2023-04-29T13:05:51;4.72;;;3.03;;
64520;SDS011;50896;46.714;17.322;2023-04-29T13:08:20;5.30;;;3.40;;
64520;SDS011;50896;46.714;17.322;2023-04-29T13:10:48;8.98;;;4.60;;
64520;SDS011;50896;46.714;17.322;2023-04-29T13:13:15;5.07;;;3.83;;
64520;SDS011;50896;46.714;17.322;2023-04-29T13:15:41;9.00;;;4.65;;
64520;SDS011;50896;46.714;17.322;2023-04-29T13:18:08;8.93;;;4.07;;
64520;SDS011;50896;46.714;17.322;2023-04-29T13:20:35;7.22;;;3.92;;
64520;SDS011;50896;46.714;17.322;2023-04-29T13:23:08;4.40;;;2.80;;
64520;SDS011;50896;46.714;17.322;2023-04-29T13:25:35;5.38;;;2.80;;
64520;SDS011;50896;46.714;17.322;2023-04-29T13:28:02;4.65;;;2.60;;
64520;SDS011;50896;46.714;17.322;2023-04-29T13:30:31;4.15;;;2.90;;
64520;SDS011;50896;46.714;17.322;2023-04-29T13:32:58;2.97;;;2.60;;
64520;SDS011;50896;46.714;17.322;2023-04-29T13:35:36;3.90;;;2.50;;
64520;SDS011;50896;46.714;17.322;2023-04-29T13:38:06;3.33;;;2.17;;
64520;SDS011;50896;46.714;17.322;2023-04-29T13:40:33;3.28;;;2.20;;
64520;SDS011;50896;46.714;17.322;2023-04-29T13:43:07;4.35;;;2.13;;
64520;SDS011;50896;46.714;17.322;2023-04-29T13:45:35;3.58;;;2.65;;
64520;SDS011;50896;46.714;17.322;2023-04-29T13:48:08;5.78;;;3.00;;
64520;SDS011;50896;46.714;17.322;2023-04-29T13:50:54;2.92;;;2.70;;
64520;SDS011;50896;46.714;17.322;2023-04-29T13:53:24;6.80;;;3.10;;
64520;SDS011;50896;46.714;17.322;2023-04-29T13:56:11;4.68;;;3.00;;
64520;SDS011;50896;46.714;17.322;2023-04-29T14:01:28;6.93;;;3.67;;
64520;SDS011;50896;46.714;17.322;2023-04-29T14:06:25;5.93;;;3.70;;
64520;SDS011;50896;46.714;17.322;2023-04-29T14:08:53;6.88;;;4.30;;
64520;SDS011;50896;46.714;17.322;2023-04-29T14:11:21;6.82;;;3.30;;
64520;SDS011;50896;46.714;17.322;2023-04-29T14:13:48;4.43;;;3.20;;
64520;SDS011;50896;46.714;17.322;2023-04-29T14:16:15;4.93;;;3.45;;
64520;SDS011;50896;46.714;17.322;2023-04-29T14:18:42;4.90;;;3.72;;
64520;SDS011;50896;46.714;17.322;2023-04-29T14:21:09;4.57;;;3.92;;
64520;SDS011;50896;46.714;17.322;2023-04-29T14:23:36;6.30;;;4.75;;
64520;SDS011;50896;46.714;17.322;2023-04-29T14:26:03;8.88;;;4.55;;
64520;SDS011;50896;46.714;17.322;2023-04-29T14:28:50;13.32;;;9.77;;
64520;SDS011;50896;46.714;17.322;2023-04-29T14:31:23;8.20;;;5.68;;
64520;SDS011;50896;46.714;17.322;2023-04-29T14:33:57;7.00;;;5.40;;
64520;SDS011;50896;46.714;17.322;2023-04-29T14:36:24;7.18;;;4.80;;
64520;SDS011;50896;46.714;17.322;2023-04-29T14:38:54;9.75;;;5.95;;
64520;SDS011;50896;46.714;17.322;2023-04-29T14:41:21;16.48;;;11.75;;
64520;SDS011;50896;46.714;17.322;2023-04-29T14:43:48;10.95;;;8.35;;
64520;SDS011;50896;46.714;17.322;2023-04-29T14:46:15;7.22;;;3.97;;
64520;SDS011;50896;46.714;17.322;2023-04-29T14:48:42;6.30;;;3.72;;
64520;SDS011;50896;46.714;17.322;2023-04-29T14:51:09;5.20;;;3.17;;
64520;SDS011;50896;46.714;17.322;2023-04-29T14:53:36;7.43;;;3.80;;
64520;SDS011;50896;46.714;17.322;2023-04-29T14:56:02;7.45;;;4.40;;
64520;SDS011;50896;46.714;17.322;2023-04-29T14:58:30;10.40;;;6.18;;
64520;SDS011;50896;46.714;17.322;2023-04-29T15:00:56;7.95;;;5.10;;
64520;SDS011;50896;46.714;17.322;2023-04-29T15:03:23;8.45;;;4.45;;
64520;SDS011;50896;46.714;17.322;2023-04-29T15:05:50;6.72;;;4.05;;
64520;SDS011;50896;46.714;17.322;2023-04-29T15:08:17;6.32;;;3.33;;
64520;SDS011;50896;46.714;17.322;2023-04-29T15:10:45;5.50;;;2.95;;
64520;SDS011;50896;46.714;17.322;2023-04-29T15:13:13;4.68;;;3.30;;
64520;SDS011;50896;46.714;17.322;2023-04-29T15:15:39;4.15;;;2.60;;
64520;SDS011;50896;46.714;17.322;2023-04-29T15:18:06;4.47;;;2.20;;
64520;SDS011;50896;46.714;17.322;2023-04-29T15:20:34;5.45;;;3.92;;
64520;SDS011;50896;46.714;17.322;2023-04-29T15:23:02;7.03;;;5.05;;
64520;SDS011;50896;46.714;17.322;2023-04-29T15:25:30;4.22;;;3.70;;
64520;SDS011;50896;46.714;17.322;2023-04-29T15:28:00;5.30;;;3.45;;
64520;SDS011;50896;46.714;17.322;2023-04-29T15:30:29;5.93;;;4.10;;
64520;SDS011;50896;46.714;17.322;2023-04-29T15:32:56;5.38;;;4.00;;
64520;SDS011;50896;46.714;17.322;2023-04-29T15:35:22;5.95;;;4.75;;